Terminal Aerodrome Forecast
Issued by NWS

Home | Current Version | Previous Version | Text Only | Print | Product List | Glossary On
Versions: 1 2 3 4 5 6 7 8 9 10 11 12 13 14 15 16 17
000
FTUS41 KPBZ 310500
TAFDUJ
TAF
KDUJ 310526Z 3106/0106 17007KT P6SM OVC100
     FM311100 21005KT 5SM -SHRA OVC025
     FM311300 21008KT 2SM SHRA BR OVC007
     FM311700 21008KT 3SM SHRA BR OVC010
     FM312000 23005KT 6SM -SHRA BR OVC020=

USA.gov is the U.S. government's official web portal to all federal, state and local government web resources and services.